Time;durP1;ratioP1;P1;durP2;ratioP2;P2;SDS_P1;SDS_P2;PMS_P1;PMS_P2;Temp;Humidity;BMP_temperature;BMP_pressure;BME280_temperature;BME280_humidity;BME280_pressure;Samples;Min_cycle;Max_cycle;Signal;HPM_P1;HPM_P2
2022/03/04 00:01:57;;;;;;;;;61.25;44.25;;;;;11.44;66.83;101313.75;5098522;27;45433;-42
2022/03/04 00:04:23;;;;;;;;;57.50;44.00;;;;;11.41;66.98;101319.34;5078756;27;45315;-44
2022/03/04 00:06:49;;;;;;;;;62.25;46.25;;;;;11.34;67.16;101308.41;5098504;27;45323;-44
2022/03/04 00:09:15;;;;;;;;;64.00;47.25;;;;;11.38;67.07;101319.63;5098589;27;45531;-43
2022/03/04 00:11:40;;;;;;;;;63.50;48.00;;;;;11.34;66.82;101332.38;5098448;27;45448;-45
2022/03/04 00:14:06;;;;;;;;;65.75;48.50;;;;;11.28;67.32;101324.09;5097562;27;45374;-42
2022/03/04 00:16:31;;;;;;;;;70.25;52.00;;;;;11.22;67.67;101328.97;5098330;27;45363;-43
2022/03/04 00:19:07;;;;;;;;;70.25;52.25;;;;;11.14;68.10;101315.50;5098613;27;45434;-45
2022/03/04 00:21:37;;;;;;;;;75.25;57.00;;;;;11.11;68.52;101329.09;5097963;27;45545;-42
2022/03/04 00:24:05;;;;;;;;;65.00;49.00;;;;;11.10;68.68;101324.75;5097940;27;45506;-44
2022/03/04 00:26:30;;;;;;;;;67.50;51.00;;;;;11.11;68.88;101321.09;5098352;27;45442;-44
2022/03/04 00:28:56;;;;;;;;;64.00;50.25;;;;;11.10;68.50;101329.22;5098246;27;45408;-42
2022/03/04 00:31:22;;;;;;;;;71.25;49.50;;;;;11.09;68.98;101331.06;5098214;27;46077;-43
2022/03/04 00:33:47;;;;;;;;;66.50;50.25;;;;;11.11;68.32;101331.75;5097881;27;45917;-42
2022/03/04 00:36:15;;;;;;;;;68.75;50.25;;;;;11.13;68.77;101328.97;5098125;27;45262;-42
2022/03/04 00:38:41;;;;;;;;;66.00;49.00;;;;;11.14;68.69;101320.00;5098208;27;45249;-43
2022/03/04 00:41:06;;;;;;;;;66.25;49.50;;;;;11.12;68.55;101314.78;5097678;27;46004;-42
2022/03/04 00:43:32;;;;;;;;;65.75;49.00;;;;;11.09;69.04;101314.25;5098194;27;45270;-42
2022/03/04 00:45:57;;;;;;;;;70.75;50.75;;;;;11.01;69.32;101306.09;5097899;27;45418;-40
2022/03/04 00:48:23;;;;;;;;;66.75;50.00;;;;;11.00;69.31;101310.56;5098093;27;45299;-44
2022/03/04 00:50:48;;;;;;;;;69.50;51.75;;;;;10.94;69.33;101306.63;5097815;27;46298;-45
2022/03/04 00:53:14;;;;;;;;;63.75;49.50;;;;;10.93;69.35;101306.75;5097681;27;45354;-42
2022/03/04 00:55:39;;;;;;;;;66.50;49.25;;;;;10.91;69.41;101311.34;5098035;27;45444;-43
2022/03/04 00:58:06;;;;;;;;;71.00;50.25;;;;;10.86;69.75;101303.78;5097844;27;45304;-44
2022/03/04 01:00:33;;;;;;;;;64.50;48.50;;;;;10.78;69.46;101294.78;5097378;27;47287;-45
2022/03/04 01:02:59;;;;;;;;;61.00;48.00;;;;;10.79;70.02;101305.31;5097403;27;45351;-42
2022/03/04 01:05:24;;;;;;;;;67.75;51.00;;;;;10.78;69.97;101308.09;5097512;27;45228;-42
2022/03/04 01:07:50;;;;;;;;;73.25;52.00;;;;;10.73;70.01;101312.00;5097747;27;45254;-43
2022/03/04 01:10:16;;;;;;;;;68.00;50.50;;;;;10.69;70.15;101313.25;5097383;27;45520;-44
2022/03/04 01:12:41;;;;;;;;;76.50;56.50;;;;;10.65;70.84;101322.47;5096726;27;45402;-43
2022/03/04 01:15:07;;;;;;;;;71.00;52.00;;;;;10.63;70.63;101321.78;5097488;27;45440;-42
2022/03/04 01:17:33;;;;;;;;;69.50;52.00;;;;;10.59;70.86;101323.00;5079310;27;45351;-43
2022/03/04 01:19:58;;;;;;;;;63.25;51.50;;;;;10.58;70.90;101325.81;5097141;27;46366;-44
2022/03/04 01:22:23;;;;;;;;;60.25;38.75;;;;;10.56;70.80;101317.09;5097444;27;45287;-43
2022/03/04 01:24:49;;;;;;;;;62.00;50.00;;;;;10.57;70.92;101330.25;5097287;27;45434;-44
2022/03/04 01:27:17;;;;;;;;;71.00;51.25;;;;;10.51;71.02;101317.50;5097592;27;45683;-43
2022/03/04 01:29:42;;;;;;;;;70.00;52.75;;;;;10.53;71.06;101320.88;5097165;27;46026;-44
2022/03/04 01:32:07;;;;;;;;;71.25;52.75;;;;;10.53;71.03;101317.38;5097078;27;45507;-44
2022/03/04 01:34:33;;;;;;;;;74.00;50.50;;;;;10.53;71.18;101326.19;5097367;27;45483;-43
2022/03/04 01:36:58;;;;;;;;;69.75;54.25;;;;;10.53;71.36;101325.34;5097458;27;45407;-43
2022/03/04 01:39:23;;;;;;;;;71.50;54.25;;;;;10.52;71.45;101321.84;5096957;27;46055;-44
2022/03/04 01:41:49;;;;;;;;;67.75;54.25;;;;;10.54;71.11;101325.22;5097145;27;45495;-43
2022/03/04 01:44:15;;;;;;;;;70.75;54.50;;;;;10.53;71.05;101309.38;5097051;27;45413;-44
2022/03/04 01:46:40;;;;;;;;;66.75;50.00;;;;;10.60;70.85;101314.03;5097443;27;45248;-42
2022/03/04 01:49:05;;;;;;;;;72.25;52.00;;;;;10.66;71.11;101313.53;5097122;27;45422;-44
2022/03/04 01:51:31;;;;;;;;;67.75;52.50;;;;;10.70;70.84;101312.28;5097187;27;45153;-41
2022/03/04 01:53:56;;;;;;;;;70.75;53.75;;;;;10.69;70.63;101307.91;5096896;27;45458;-42
2022/03/04 01:56:24;;;;;;;;;74.50;54.00;;;;;10.74;70.39;101313.72;5097257;27;45225;-43
2022/03/04 01:58:50;;;;;;;;;74.00;53.50;;;;;10.79;70.40;101317.75;5078409;27;47041;-43
2022/03/04 02:01:15;;;;;;;;;68.50;53.00;;;;;10.78;70.41;101294.78;5096588;27;45481;-42
2022/03/04 02:03:42;;;;;;;;;64.00;48.25;;;;;10.77;70.07;101295.78;5097092;27;45337;-42
2022/03/04 02:06:08;;;;;;;;;67.75;53.25;;;;;10.77;69.93;101298.44;5097060;27;45437;-43
2022/03/04 02:08:33;;;;;;;;;65.50;50.25;;;;;10.72;70.13;101288.19;5096583;27;45387;-43
2022/03/04 02:10:58;;;;;;;;;67.00;51.75;;;;;10.68;69.68;101287.63;5096744;27;45390;-44
2022/03/04 02:13:24;;;;;;;;;64.00;53.00;;;;;10.63;70.26;101283.69;5096892;27;45350;-44
2022/03/04 02:15:49;;;;;;;;;69.75;48.25;;;;;10.58;70.40;101288.56;5096976;27;45315;-43
2022/03/04 02:18:17;;;;;;;;;69.75;51.25;;;;;10.54;70.66;101287.16;5096768;27;46288;-42
2022/03/04 02:20:46;;;;;;;;;75.50;54.75;;;;;10.52;70.70;101289.94;5096529;27;45319;-43
2022/03/04 02:23:12;;;;;;;;;73.25;53.75;;;;;10.47;70.91;101287.66;5096506;27;45401;-43
2022/03/04 02:25:40;;;;;;;;;73.25;56.00;;;;;10.44;71.12;101287.09;5096672;27;45530;-42
2022/03/04 02:28:05;;;;;;;;;75.00;55.50;;;;;10.44;71.18;101276.44;5097648;27;45396;-43
2022/03/04 02:30:31;;;;;;;;;67.00;53.75;;;;;10.40;71.07;101278.53;5099883;27;45494;-44
2022/03/04 02:32:56;;;;;;;;;72.75;54.50;;;;;10.36;70.95;101279.75;5100029;27;45377;-43
2022/03/04 02:35:21;;;;;;;;;59.00;43.25;;;;;10.34;71.24;101278.22;5100109;27;45318;-43
2022/03/04 02:37:47;;;;;;;;;71.25;53.00;;;;;10.33;71.55;101279.22;5099087;27;45805;-43
2022/03/04 02:40:14;;;;;;;;;75.25;53.75;;;;;10.32;71.48;101288.13;5099686;27;45323;-42
2022/03/04 02:42:39;;;;;;;;;70.00;52.00;;;;;10.30;71.46;101285.63;5099869;27;45382;-44
2022/03/04 02:45:05;;;;;;;;;64.25;48.50;;;;;10.30;71.37;101282.97;5099686;27;45466;-43
2022/03/04 02:47:30;;;;;;;;;74.75;55.75;;;;;10.27;71.62;101282.38;5099750;27;45378;-43
2022/03/04 02:49:55;;;;;;;;;63.50;49.25;;;;;10.26;70.92;101280.69;5099775;27;45325;-43
2022/03/04 02:52:21;;;;;;;;;65.75;48.00;;;;;10.30;71.50;101284.78;5081479;27;45196;-43
2022/03/04 02:54:46;;;;;;;;;68.75;52.25;;;;;10.30;71.46;101279.47;5099726;27;45619;-43
2022/03/04 02:57:12;;;;;;;;;71.00;54.00;;;;;10.32;71.35;101275.69;5099403;27;46123;-42
2022/03/04 02:59:37;;;;;;;;;71.00;51.00;;;;;10.40;71.56;101283.84;5098620;27;45397;-42
2022/03/04 03:02:03;;;;;;;;;73.25;54.75;;;;;10.46;71.25;101278.00;5099627;27;45293;-42
2022/03/04 03:04:28;;;;;;;;;74.25;52.50;;;;;10.53;70.85;101294.25;5099756;27;45502;-43
2022/03/04 03:06:53;;;;;;;;;71.75;52.50;;;;;10.55;70.88;101279.03;5099233;27;45925;-44
2022/03/04 03:09:19;;;;;;;;;68.50;50.50;;;;;10.64;70.92;101286.19;5099357;27;45384;-43
2022/03/04 03:11:44;;;;;;;;;69.50;51.50;;;;;10.70;70.53;101284.81;5099430;27;45362;-43
2022/03/04 03:14:10;;;;;;;;;67.50;53.25;;;;;10.75;70.81;101285.28;5099396;27;45497;-42
2022/03/04 03:16:35;;;;;;;;;73.75;54.75;;;;;10.79;70.20;101286.69;5099214;27;46226;-41
2022/03/04 03:19:01;;;;;;;;;64.75;49.75;;;;;10.83;70.00;101284.56;5099188;27;45474;-43
2022/03/04 03:21:26;;;;;;;;;69.75;52.00;;;;;10.83;69.92;101282.78;5099289;27;45431;-44
2022/03/04 03:23:51;;;;;;;;;70.00;54.00;;;;;10.87;70.56;101286.00;5099258;27;45462;-43
2022/03/04 03:26:17;;;;;;;;;67.75;52.25;;;;;10.92;70.00;101281.97;5099120;27;46025;-41
2022/03/04 03:28:42;;;;;;;;;67.75;51.50;;;;;10.97;69.79;101289.53;5099233;27;45323;-42
2022/03/04 03:31:08;;;;;;;;;65.25;50.75;;;;;11.01;69.68;101290.13;5099239;27;45333;-43
2022/03/04 03:33:36;;;;;;;;;68.00;51.50;;;;;11.04;69.45;101295.16;5099404;27;45320;-42
2022/03/04 03:36:01;;;;;;;;;63.00;49.75;;;;;11.08;69.48;101292.09;5098869;27;46130;-42
2022/03/04 03:38:27;;;;;;;;;70.25;52.00;;;;;11.10;69.28;101298.13;5098575;27;45458;-44
2022/03/04 03:40:52;;;;;;;;;60.25;48.00;;;;;11.14;69.31;101290.72;5098710;27;45338;-41
2022/03/04 03:43:18;;;;;;;;;64.50;50.75;;;;;11.15;69.24;101290.56;5080980;27;45396;-42
2022/03/04 03:45:43;;;;;;;;;60.25;46.25;;;;;11.19;69.11;101288.47;5099559;27;46294;-43
2022/03/04 03:48:09;;;;;;;;;61.50;46.25;;;;;11.21;68.96;101290.03;5098940;27;45346;-44
2022/03/04 03:50:35;;;;;;;;;65.00;48.25;;;;;11.26;68.88;101288.78;5098779;27;45532;-43
2022/03/04 03:53:02;;;;;;;;;57.25;47.00;;;;;11.28;69.54;101294.78;5098801;27;45327;-43
2022/03/04 03:55:27;;;;;;;;;61.25;46.00;;;;;11.26;68.69;101288.78;5097701;27;46056;-42
2022/03/04 03:57:53;;;;;;;;;62.75;47.25;;;;;11.32;68.93;101301.53;5098589;27;45363;-44
2022/03/04 04:00:18;;;;;;;;;64.00;48.00;;;;;11.33;68.61;101295.22;5098776;27;45336;-43
2022/03/04 04:02:43;;;;;;;;;66.75;48.50;;;;;11.32;68.72;101289.03;5098702;27;45572;-43
2022/03/04 04:05:11;;;;;;;;;70.00;50.25;;;;;11.34;68.92;101300.41;5098708;27;45261;-43
2022/03/04 04:07:37;;;;;;;;;64.00;47.50;;;;;11.36;68.92;101300.28;5098346;27;45444;-44
2022/03/04 04:10:03;;;;;;;;;57.25;42.50;;;;;11.35;68.87;101296.75;5098321;27;45420;-43
2022/03/04 04:12:28;;;;;;;;;69.75;49.00;;;;;11.37;68.51;101301.94;5098706;27;45345;-44
2022/03/04 04:14:54;;;;;;;;;60.25;48.75;;;;;11.38;68.26;101303.66;5098052;27;46040;-42
2022/03/04 04:17:19;;;;;;;;;59.75;44.25;;;;;11.36;67.90;101295.78;5098366;27;45293;-42
2022/03/04 04:19:44;;;;;;;;;58.00;46.75;;;;;11.39;68.16;101303.50;5098205;27;45377;-43
2022/03/04 04:22:10;;;;;;;;;61.00;44.50;;;;;11.40;68.23;101307.84;5098566;27;45393;-43
2022/03/04 04:24:35;;;;;;;;;60.75;45.75;;;;;11.40;67.69;101310.50;5097840;27;46109;-45
2022/03/04 04:27:01;;;;;;;;;59.75;44.50;;;;;11.38;68.02;101303.66;5098075;27;45586;-43
2022/03/04 04:29:26;;;;;;;;;65.50;47.00;;;;;11.39;67.90;101310.66;5098209;27;45563;-42
2022/03/04 04:31:51;;;;;;;;;64.25;50.00;;;;;11.35;67.90;101304.75;5098277;27;45542;-44
2022/03/04 04:34:17;;;;;;;;;66.50;49.25;;;;;11.33;68.14;101313.84;5097988;27;46151;-44
2022/03/04 04:36:42;;;;;;;;;65.00;49.25;;;;;11.35;68.34;101314.56;5097875;27;45307;-42
2022/03/04 04:39:07;;;;;;;;;71.50;50.75;;;;;11.36;68.03;101316.25;5098034;27;45508;-42
2022/03/04 04:41:34;;;;;;;;;61.75;47.00;;;;;11.34;68.10;101323.56;5098051;27;45312;-42
2022/03/04 04:44:00;;;;;;;;;67.50;52.00;;;;;11.31;68.25;101319.34;5097685;27;47158;-42
2022/03/04 04:46:25;;;;;;;;;61.25;50.50;;;;;11.29;68.06;101323.94;5097456;27;45560;-43
2022/03/04 04:48:51;;;;;;;;;62.50;49.75;;;;;11.27;68.05;101327.72;5097797;27;45288;-44
2022/03/04 04:51:16;;;;;;;;;73.00;53.00;;;;;11.24;68.30;101328.84;5097606;27;45673;-44
2022/03/04 04:53:42;;;;;;;;;70.75;52.50;;;;;11.22;68.32;101331.66;5097782;27;45324;-43
2022/03/04 04:56:07;;;;;;;;;73.25;52.00;;;;;11.21;68.38;101335.31;5097592;27;45449;-43
2022/03/04 04:58:33;;;;;;;;;72.00;53.75;;;;;11.20;68.64;101333.59;5097626;27;45448;-44
2022/03/04 05:00:58;;;;;;;;;69.00;54.50;;;;;11.20;68.67;101328.25;5097867;27;45420;-43
2022/03/04 05:03:26;;;;;;;;;67.50;51.25;;;;;11.19;68.61;101336.41;5097467;27;46074;-43
2022/03/04 05:05:54;;;;;;;;;69.00;52.75;;;;;11.20;68.82;101335.41;5097607;27;45916;-43
2022/03/04 05:08:20;;;;;;;;;68.50;51.50;;;;;11.22;68.87;101341.47;5097466;27;45476;-42
2022/03/04 05:10:46;;;;;;;;;67.75;52.25;;;;;11.20;68.42;101328.25;5097386;27;45504;-43
2022/03/04 05:13:11;;;;;;;;;69.50;51.75;;;;;11.22;68.86;101336.97;5097663;27;45351;-43
2022/03/04 05:15:37;;;;;;;;;73.50;52.25;;;;;11.16;68.64;101329.50;5096332;27;45630;-42
2022/03/04 05:18:03;;;;;;;;;68.25;50.50;;;;;11.22;68.43;101338.78;5097610;27;45425;-44
2022/03/04 05:20:29;;;;;;;;;69.25;51.00;;;;;11.20;68.64;101338.91;5097382;27;45540;-43
2022/03/04 05:22:54;;;;;;;;;69.50;54.75;;;;;11.23;68.51;101343.97;5097304;27;47197;-43
2022/03/04 05:25:20;;;;;;;;;70.00;51.75;;;;;11.26;68.63;101347.38;5096904;27;45310;-43
2022/03/04 05:27:45;;;;;;;;;72.50;54.50;;;;;11.25;68.54;101346.53;5097506;27;45445;-43
2022/03/04 05:30:11;;;;;;;;;69.50;52.50;;;;;11.26;68.30;101350.03;5097567;27;45458;-43
2022/03/04 05:32:37;;;;;;;;;66.25;50.50;;;;;11.25;68.62;101349.19;5097186;27;46150;-43
2022/03/04 05:35:03;;;;;;;;;72.50;54.75;;;;;11.27;68.50;101349.88;5097172;27;45480;-43
2022/03/04 05:37:29;;;;;;;;;69.00;52.50;;;;;11.29;68.83;101352.41;5097306;27;45322;-42
2022/03/04 05:39:54;;;;;;;;;64.25;46.00;;;;;11.28;68.74;101353.38;5097041;27;45435;-43
2022/03/04 05:42:20;;;;;;;;;73.50;52.00;;;;;11.29;68.51;101357.72;5078999;27;45476;-42
2022/03/04 05:44:46;;;;;;;;;64.00;48.75;;;;;11.29;68.35;101358.56;5078635;27;45535;-43
2022/03/04 05:47:11;;;;;;;;;72.25;51.75;;;;;11.30;68.42;101343.44;5097112;27;45255;-44
2022/03/04 05:49:38;;;;;;;;;70.50;52.00;;;;;11.19;68.26;101337.25;5097069;27;45398;-43
2022/03/04 05:52:04;;;;;;;;;67.00;47.25;;;;;11.26;68.17;101342.03;5096825;27;45440;-44
2022/03/04 05:54:29;;;;;;;;;64.00;50.00;;;;;11.29;67.98;101352.41;5096727;27;45465;-43
2022/03/04 05:56:55;;;;;;;;;71.00;53.25;;;;;11.28;68.28;101350.72;5096777;27;45373;-44
2022/03/04 05:59:21;;;;;;;;;67.50;51.50;;;;;11.24;68.08;101352.81;5097214;27;45358;-43
2022/03/04 06:01:46;;;;;;;;;71.75;52.50;;;;;11.20;68.51;101344.25;5096834;27;45741;-45
2022/03/04 06:04:12;;;;;;;;;64.00;49.75;;;;;11.25;68.33;101359.84;5099628;27;45250;-43
2022/03/04 06:06:37;;;;;;;;;71.25;53.00;;;;;11.19;68.62;101350.56;5100371;27;45285;-43
2022/03/04 06:09:03;;;;;;;;;68.50;49.00;;;;;11.24;68.68;101358.97;5100837;27;45224;-41
2022/03/04 06:11:28;;;;;;;;;62.00;52.00;;;;;11.26;68.40;101358.00;5100074;27;47089;-43
2022/03/04 06:13:54;;;;;;;;;71.00;50.25;;;;;11.23;68.55;101356.47;5100158;27;45357;-42
2022/03/04 06:16:22;;;;;;;;;69.25;52.00;;;;;11.26;68.24;101366.84;5100384;27;45270;-42
2022/03/04 06:18:48;;;;;;;;;70.75;51.50;;;;;11.28;68.23;101372.03;5100336;27;45391;-43
2022/03/04 06:21:14;;;;;;;;;69.00;52.75;;;;;11.26;68.43;101374.84;5099949;27;45361;-43
2022/03/04 06:23:39;;;;;;;;;69.25;51.75;;;;;11.25;68.52;101373.16;5099900;27;45472;-43
2022/03/04 06:26:05;;;;;;;;;59.25;43.00;;;;;11.24;68.53;101382.09;5100254;27;45421;-44
2022/03/04 06:28:30;;;;;;;;;69.50;53.00;;;;;11.22;68.68;101379.59;5100215;27;45328;-42
2022/03/04 06:30:56;;;;;;;;;67.50;54.25;;;;;11.21;68.50;101388.56;5099807;27;45431;-42
2022/03/04 06:33:30;;;;;;;;;77.75;57.00;;;;;11.21;68.36;101395.72;5098993;27;45327;-43
2022/03/04 06:35:59;;;;;;;;;65.00;49.00;;;;;11.17;67.56;101391.63;5100014;27;45513;-44
2022/03/04 06:38:25;;;;;;;;;72.00;52.50;;;;;11.11;68.40;101386.81;5099839;27;45335;-43
2022/03/04 06:40:51;;;;;;;;;72.75;52.75;;;;;11.10;68.51;101385.16;5099547;27;45932;-41
2022/03/04 06:43:17;;;;;;;;;67.75;50.25;;;;;10.99;68.07;101372.75;5099683;27;45350;-44
2022/03/04 06:45:44;;;;;;;;;69.75;53.50;;;;;11.06;68.30;101389.06;5099878;27;45320;-43
2022/03/04 06:48:11;;;;;;;;;62.75;51.00;;;;;11.05;68.17;101393.53;5081440;27;45354;-42
2022/03/04 06:50:37;;;;;;;;;68.50;51.50;;;;;11.06;68.43;101397.88;5099190;27;46213;-44
2022/03/04 06:53:03;;;;;;;;;65.75;49.25;;;;;11.02;68.02;101401.78;5099630;27;45487;-42
2022/03/04 06:55:30;;;;;;;;;65.25;44.75;;;;;11.06;67.73;101407.69;5099152;27;45243;-43
2022/03/04 06:57:55;;;;;;;;;71.25;54.50;;;;;11.06;67.74;101413.84;5099864;27;45305;-42
2022/03/04 07:00:22;;;;;;;;;68.75;51.25;;;;;11.12;67.70;101415.97;5099170;27;45888;-42
2022/03/04 07:02:47;;;;;;;;;67.50;52.00;;;;;11.05;67.50;101403.34;5099222;27;45378;-44
2022/03/04 07:05:14;;;;;;;;;68.75;52.75;;;;;11.14;67.47;101421.19;5099495;27;45639;-44
2022/03/04 07:07:40;;;;;;;;;71.25;51.00;;;;;11.02;67.78;101415.09;5099681;27;45247;-43
2022/03/04 07:10:06;;;;;;;;;64.25;47.00;;;;;11.05;67.69;101420.16;5099086;27;47000;-43
2022/03/04 07:12:31;;;;;;;;;72.00;53.25;;;;;11.05;67.84;101422.81;5098975;27;45466;-42
2022/03/04 07:14:57;;;;;;;;;71.50;52.00;;;;;11.13;67.70;101427.50;5099014;27;45459;-45
2022/03/04 07:17:22;;;;;;;;;71.25;51.25;;;;;11.15;67.66;101421.03;5099525;27;45275;-43
2022/03/04 07:19:48;;;;;;;;;64.75;51.25;;;;;11.17;66.90;101434.25;5099281;27;45208;-45
2022/03/04 07:22:13;;;;;;;;;64.50;50.25;;;;;11.12;67.18;101421.28;5099191;27;45387;-43
2022/03/04 07:24:39;;;;;;;;;63.50;48.00;;;;;11.18;67.11;101434.09;5099081;27;45243;-43
2022/03/04 07:27:04;;;;;;;;;76.25;49.75;;;;;11.18;67.32;101433.25;5099133;27;45272;-43
2022/03/04 07:29:30;;;;;;;;;65.25;49.25;;;;;11.21;66.89;101441.81;5098892;27;46834;-42
2022/03/04 07:31:56;;;;;;;;;68.75;49.25;;;;;11.19;66.93;101443.75;5099053;27;45375;-44
2022/03/04 07:34:22;;;;;;;;;72.50;55.00;;;;;11.23;67.12;101442.50;5098008;27;45457;-43
2022/03/04 07:36:47;;;;;;;;;62.00;49.00;;;;;11.24;67.15;101444.19;5099050;27;45373;-42
2022/03/04 07:39:13;;;;;;;;;61.75;47.25;;;;;11.27;66.68;101440.44;5098554;27;45536;-41
2022/03/04 07:41:38;;;;;;;;;72.00;52.50;;;;;11.29;66.50;101442.94;5098312;27;45546;-42
2022/03/04 07:44:05;;;;;;;;;68.50;50.50;;;;;11.27;66.64;101440.44;5098908;27;45357;-44
2022/03/04 07:46:30;;;;;;;;;71.25;51.25;;;;;11.29;66.79;101448.28;5097248;27;45394;-43
2022/03/04 07:48:56;;;;;;;;;64.75;49.00;;;;;11.23;66.79;101434.53;5098750;27;45432;-43
2022/03/04 07:51:21;;;;;;;;;69.00;51.00;;;;;11.34;66.23;101444.25;5098463;27;45338;-43
2022/03/04 07:53:47;;;;;;;;;63.25;45.50;;;;;11.38;66.22;101442.16;5098710;27;45302;-42
2022/03/04 07:56:12;;;;;;;;;65.00;48.00;;;;;11.39;65.96;101446.50;5098496;27;45169;-43
2022/03/04 07:58:38;;;;;;;;;62.50;47.75;;;;;11.45;65.99;101456.63;5097852;27;45403;-44
2022/03/04 08:01:03;;;;;;;;;65.25;48.00;;;;;11.47;66.06;101454.69;5097847;27;45225;-42
2022/03/04 08:03:29;;;;;;;;;61.50;49.00;;;;;11.49;65.54;101456.22;5098334;27;45316;-43
2022/03/04 08:05:54;;;;;;;;;59.00;48.50;;;;;11.52;65.21;101455.09;5098946;27;45321;-43
2022/03/04 08:08:20;;;;;;;;;65.00;47.75;;;;;11.50;65.51;101449.06;5098172;27;45358;-44
2022/03/04 08:10:45;;;;;;;;;64.50;49.00;;;;;11.57;64.92;101463.53;5079305;27;45750;-43
2022/03/04 08:13:11;;;;;;;;;66.25;48.75;;;;;11.59;65.05;101460.75;5098384;27;45457;-43
2022/03/04 08:15:36;;;;;;;;;61.00;47.25;;;;;11.62;65.09;101468.44;5098681;27;45402;-44
2022/03/04 08:18:02;;;;;;;;;73.00;49.25;;;;;11.65;64.93;101466.38;5098150;27;46070;-43
2022/03/04 08:20:29;;;;;;;;;64.25;47.00;;;;;11.67;64.67;101472.41;5097953;27;45345;-43
2022/03/04 08:22:54;;;;;;;;;63.25;48.75;;;;;11.71;64.15;101470.28;5098194;27;45399;-43
2022/03/04 08:25:19;;;;;;;;;66.50;51.75;;;;;11.77;64.28;101474.25;5097212;27;45320;-43
2022/03/04 08:27:45;;;;;;;;;68.75;48.50;;;;;11.77;63.78;101461.78;5097929;27;45530;-42
2022/03/04 08:30:12;;;;;;;;;64.75;52.25;;;;;11.86;64.38;101476.13;5097990;27;45310;-42
2022/03/04 08:32:39;;;;;;;;;66.00;49.25;;;;;11.89;63.01;101483.88;5098182;27;45398;-44
2022/03/04 08:35:05;;;;;;;;;63.50;47.25;;;;;11.90;63.93;101477.53;5098151;27;45442;-45
2022/03/04 08:37:31;;;;;;;;;63.50;48.25;;;;;11.95;63.73;101478.81;5097726;27;45390;-45
2022/03/04 08:39:57;;;;;;;;;69.00;50.25;;;;;12.01;63.04;101477.44;5097864;27;45409;-43
2022/03/04 08:42:23;;;;;;;;;70.25;51.75;;;;;12.02;63.11;101473.78;5097736;27;45446;-43
2022/03/04 08:44:49;;;;;;;;;66.00;47.75;;;;;12.08;63.05;101483.88;5097990;27;45362;-43
2022/03/04 08:47:14;;;;;;;;;77.75;55.00;;;;;12.15;62.51;101486.84;5097481;27;46119;-44
2022/03/04 08:49:40;;;;;;;;;65.25;49.75;;;;;12.17;62.21;101483.03;5097898;27;45676;-45
2022/03/04 08:52:06;;;;;;;;;70.25;50.50;;;;;12.21;61.91;101480.94;5097864;27;45410;-43
2022/03/04 08:54:32;;;;;;;;;70.50;51.25;;;;;12.22;62.20;101488.81;5097944;27;45413;-44
2022/03/04 08:56:57;;;;;;;;;66.00;53.50;;;;;12.23;61.75;101493.16;5097475;27;45975;-44
2022/03/04 08:59:22;;;;;;;;;61.00;50.00;;;;;12.26;61.95;101496.53;5097623;27;45295;-43
2022/03/04 09:01:48;;;;;;;;;68.00;52.25;;;;;12.26;61.98;101491.19;5097657;27;45354;-44
2022/03/04 09:04:14;;;;;;;;;64.75;49.50;;;;;12.29;62.02;101497.09;5097841;27;45419;-44
2022/03/04 09:06:40;;;;;;;;;61.25;46.75;;;;;12.34;61.89;101488.69;5097470;27;46330;-42
2022/03/04 09:09:06;;;;;;;;;59.00;45.75;;;;;12.42;61.27;101491.47;5097440;27;45346;-42
2022/03/04 09:11:31;;;;;;;;;66.00;51.25;;;;;12.52;61.10;101486.16;5097348;27;45451;-42
2022/03/04 09:13:56;;;;;;;;;68.75;52.50;;;;;12.56;60.75;101485.75;5097703;27;45447;-45
2022/03/04 09:16:22;;;;;;;;;64.00;48.00;;;;;12.65;60.84;101495.56;5097225;27;46173;-44
2022/03/04 09:18:47;;;;;;;;;63.00;48.25;;;;;12.67;60.64;101498.06;5097310;27;45387;-44
2022/03/04 09:21:13;;;;;;;;;74.50;54.25;;;;;12.65;60.78;101497.41;5097400;27;45381;-42
2022/03/04 09:23:38;;;;;;;;;68.75;53.25;;;;;12.73;60.88;101495.69;5097660;27;45381;-43
2022/03/04 09:26:04;;;;;;;;;67.25;50.50;;;;;12.83;60.27;101501.00;5097386;27;45372;-44
2022/03/04 09:28:29;;;;;;;;;65.00;48.25;;;;;12.89;60.35;101496.91;5097143;27;45559;-44
2022/03/04 09:30:55;;;;;;;;;65.00;50.50;;;;;12.87;59.86;101491.72;5097392;27;45296;-44
2022/03/04 09:33:20;;;;;;;;;75.75;54.25;;;;;12.87;60.18;101485.56;5097522;27;45231;-45
2022/03/04 09:35:45;;;;;;;;;75.00;56.00;;;;;12.96;60.09;101493.53;5097400;27;46123;-42
2022/03/04 09:38:11;;;;;;;;;64.50;48.50;;;;;12.95;59.83;101477.66;5097024;27;45220;-45
2022/03/04 09:40:37;;;;;;;;;73.50;56.00;;;;;12.97;59.80;101473.84;5097173;27;45708;-44
2022/03/04 09:43:06;;;;;;;;;68.25;51.00;;;;;13.13;59.46;101491.13;5097417;27;45364;-43
2022/03/04 09:45:32;;;;;;;;;68.00;52.00;;;;;13.12;59.72;101487.59;5096725;27;46089;-43
2022/03/04 09:47:57;;;;;;;;;67.50;51.00;;;;;13.20;59.66;101495.72;5096998;27;45248;-42
2022/03/04 09:50:23;;;;;;;;;64.75;49.50;;;;;13.24;59.02;101488.31;5097212;27;45552;-43
2022/03/04 09:52:49;;;;;;;;;66.00;48.50;;;;;13.29;59.25;101493.22;5097202;27;45251;-44
2022/03/04 09:55:15;;;;;;;;;70.25;52.25;;;;;13.30;58.95;101495.72;5096875;27;46167;-42
2022/03/04 09:57:41;;;;;;;;;68.50;48.75;;;;;13.37;59.19;101490.66;5096673;27;45400;-44
2022/03/04 10:00:07;;;;;;;;;67.75;52.75;;;;;13.41;58.62;101495.56;5096813;27;45307;-42
2022/03/04 10:02:33;;;;;;;;;72.00;51.75;;;;;13.47;58.90;101499.47;5097136;27;45432;-45
2022/03/04 10:05:01;;;;;;;;;71.75;50.00;;;;;13.48;58.54;101499.34;5096894;27;45293;-45
2022/03/04 10:07:36;;;;;;;;;68.75;51.75;;;;;13.51;58.80;101494.66;5096718;27;45328;-43
2022/03/04 10:10:03;;;;;;;;;70.50;54.25;;;;;13.54;58.99;101497.06;5096966;27;45440;-45
2022/03/04 10:12:29;;;;;;;;;69.25;52.50;;;;;13.51;58.38;101497.34;5096799;27;45302;-44
2022/03/04 10:14:58;;;;;;;;;71.25;51.75;;;;;13.45;58.82;101496.94;5096462;27;47211;-43
2022/03/04 10:17:25;;;;;;;;;73.25;54.50;;;;;13.42;58.54;101491.03;5096873;27;45409;-44
2022/03/04 10:19:55;;;;;;;;;68.25;53.50;;;;;13.43;58.59;101506.94;5096527;27;45375;-44
2022/03/04 10:22:21;;;;;;;;;64.75;51.00;;;;;13.34;58.57;101488.25;5096858;27;45291;-44
2022/03/04 10:24:46;;;;;;;;;69.00;53.25;;;;;13.47;58.73;101499.47;5096621;27;45306;-44
2022/03/04 10:27:14;;;;;;;;;72.00;51.50;;;;;13.48;58.59;101496.66;5096573;27;45431;-42
2022/03/04 10:29:48;;;;;;;;;71.50;53.00;;;;;13.52;58.66;101491.84;5096885;27;45317;-43
2022/03/04 10:32:24;;;;;;;;;69.75;52.75;;;;;13.55;58.36;101496.91;5096743;27;45248;-42
2022/03/04 10:34:52;;;;;;;;;75.75;51.75;;;;;13.59;58.54;101500.13;5096419;27;47043;-42
2022/03/04 10:37:39;;;;;;;;;77.75;54.50;;;;;13.58;58.52;101499.28;5096365;27;45508;-44
2022/03/04 10:40:10;;;;;;;;;73.00;56.00;;;;;13.65;58.31;101496.84;5096557;27;45358;-44
2022/03/04 10:42:50;;;;;;;;;71.25;54.50;;;;;13.68;58.26;101499.22;5096601;27;45297;-43
2022/03/04 10:45:23;;;;;;;;;72.00;55.00;;;;;13.72;58.24;101506.78;5096000;27;46448;-44
2022/03/04 10:47:58;;;;;;;;;69.00;54.25;;;;;13.75;58.23;101503.00;5096343;27;45397;-43
2022/03/04 10:50:32;;;;;;;;;76.00;53.50;;;;;13.73;57.83;101503.13;5099395;27;45512;-44
2022/03/04 10:53:08;;;;;;;;;72.50;55.00;;;;;13.73;58.79;101507.63;5099952;27;45471;-43
2022/03/04 10:55:35;;;;;;;;;71.00;53.50;;;;;13.72;58.22;101500.59;5099578;27;46279;-44
2022/03/04 10:58:06;;;;;;;;;75.50;55.25;;;;;13.69;58.14;101498.22;5099638;27;45484;-42
2022/03/04 11:00:35;;;;;;;;;74.75;54.50;;;;;13.70;57.88;101492.75;5099504;27;45545;-43
2022/03/04 11:03:02;;;;;;;;;71.25;52.75;;;;;13.64;58.35;101490.66;5099989;27;45350;-44
2022/03/04 11:05:28;;;;;;;;;72.50;52.75;;;;;13.73;58.13;101495.09;5099233;27;46211;-44